createdAt,value
2023-04-28T00:03:15.300Z,1015.61
2023-04-28T00:08:58.650Z,1015.45
2023-04-28T00:14:42.215Z,1015.51
2023-04-28T00:20:08.971Z,1015.49
2023-04-28T00:25:14.933Z,1015.49
2023-04-28T00:31:08.708Z,1015.40
2023-04-28T00:36:26.256Z,1015.42
2023-04-28T00:41:55.130Z,1015.32
2023-04-28T00:47:36.311Z,1015.38
2023-04-28T00:53:28.084Z,1015.31
2023-04-28T01:04:45.737Z,1015.25
2023-04-28T01:09:53.199Z,1015.30
2023-04-28T01:15:12.322Z,1015.22
2023-04-28T01:20:29.271Z,1015.14
2023-04-28T01:25:49.088Z,1015.07
2023-04-28T01:31:02.424Z,1014.98
2023-04-28T01:36:14.881Z,1015.02
2023-04-28T01:41:22.785Z,1015.01
2023-04-28T01:46:30.931Z,1015.03
2023-04-28T01:51:38.441Z,1014.94
2023-04-28T01:56:45.913Z,1015.02
2023-04-28T02:01:53.722Z,1015.02
2023-04-28T02:07:01.267Z,1015.09
2023-04-28T02:12:08.754Z,1015.11
2023-04-28T02:17:16.263Z,1015.15
2023-04-28T02:22:23.795Z,1014.92
2023-04-28T02:27:31.189Z,1014.91
2023-04-28T02:32:38.804Z,1014.81
2023-04-28T02:37:46.424Z,1015.02
2023-04-28T02:42:53.910Z,1015.06
2023-04-28T02:48:01.508Z,1015.21
2023-04-28T02:53:13.871Z,1015.49
2023-04-28T02:58:21.537Z,1015.65
2023-04-28T03:03:29.194Z,1015.77
2023-04-28T03:08:36.507Z,1015.81
2023-04-28T03:13:43.990Z,1015.79
2023-04-28T03:18:51.699Z,1015.71
2023-04-28T03:24:04.094Z,1015.68
2023-04-28T03:29:09.686Z,1015.61
2023-04-28T03:34:17.787Z,1015.50
2023-04-28T03:40:09.115Z,1015.47
2023-04-28T03:46:34.721Z,1015.42
2023-04-28T03:52:27.646Z,1015.36
2023-04-28T03:57:54.285Z,1015.32
2023-04-28T04:03:30.724Z,1015.47
2023-04-28T04:09:28.007Z,1015.75
2023-04-28T04:15:28.122Z,1015.90
2023-04-28T04:21:00.310Z,1016.09
2023-04-28T04:32:22.531Z,1016.24
2023-04-28T04:37:46.074Z,1016.19
2023-04-28T04:43:34.028Z,1015.96
2023-04-28T04:48:51.111Z,1016.21
2023-04-28T04:53:57.382Z,1016.31
2023-04-28T04:59:08.655Z,1016.21
2023-04-28T05:04:24.764Z,1016.15
2023-04-28T05:09:32.433Z,1016.25
2023-04-28T05:15:24.739Z,1016.35
2023-04-28T05:20:41.407Z,1016.55
2023-04-28T05:26:01.273Z,1016.33
2023-04-28T05:31:19.448Z,1016.56
2023-04-28T05:36:24.795Z,1016.72
2023-04-28T05:42:08.659Z,1016.57
2023-04-28T05:47:15.941Z,1016.72
2023-04-28T05:52:36.189Z,1016.72
2023-04-28T05:57:51.937Z,1016.78
2023-04-28T06:03:24.377Z,1016.99
2023-04-28T06:08:34.586Z,1016.91
2023-04-28T06:13:45.772Z,1016.83
2023-04-28T06:18:53.549Z,1016.77
2023-04-28T06:24:09.814Z,1016.69
2023-04-28T06:29:17.558Z,1016.63
2023-04-28T06:35:04.904Z,1016.53
2023-04-28T06:40:24.464Z,1016.72
2023-04-28T06:45:39.634Z,1016.84
2023-04-28T06:51:10.560Z,1016.77
2023-04-28T06:56:17.781Z,1016.65
2023-04-28T07:01:51.549Z,1016.65
2023-04-28T07:07:29.760Z,1016.77
2023-04-28T07:18:23.550Z,1016.84
2023-04-28T07:19:16.443Z,1016.69
2023-04-28T07:23:25.581Z,1016.85
2023-04-28T07:29:12.019Z,1016.64
2023-04-28T07:34:21.182Z,1016.62
2023-04-28T07:39:39.224Z,1016.58
2023-04-28T07:44:50.208Z,1016.44
2023-04-28T07:49:54.783Z,1016.50
2023-04-28T07:55:17.306Z,1016.35
2023-04-28T08:00:28.783Z,1016.43
2023-04-28T08:05:36.149Z,1016.37
2023-04-28T08:10:43.755Z,1016.40
2023-04-28T08:15:55.321Z,1016.23
2023-04-28T08:21:02.753Z,1016.14
2023-04-28T08:26:10.117Z,1015.99
2023-04-28T08:31:17.382Z,1016.65
2023-04-28T08:36:25.681Z,1016.56
2023-04-28T08:41:32.855Z,1016.92
2023-04-28T08:46:40.077Z,1017.01
2023-04-28T08:51:47.355Z,1016.98
2023-04-28T08:56:54.654Z,1016.77
2023-04-28T09:02:01.944Z,1016.81
2023-04-28T09:07:09.104Z,1016.97
2023-04-28T09:12:16.408Z,1016.68
2023-04-28T09:17:23.688Z,1016.69
2023-04-28T09:22:31.037Z,1016.64
2023-04-28T09:27:38.243Z,1016.66
2023-04-28T09:32:45.713Z,1016.73
2023-04-28T09:37:52.824Z,1016.50
2023-04-28T09:43:06.282Z,1016.70
2023-04-28T09:48:07.158Z,1016.60
2023-04-28T09:53:14.374Z,1016.77
2023-04-28T09:58:21.621Z,1016.63
2023-04-28T10:03:29.995Z,1016.71
2023-04-28T10:08:36.224Z,1016.65
2023-04-28T10:13:43.278Z,1016.44
2023-04-28T10:18:50.488Z,1016.31
2023-04-28T10:23:57.759Z,1016.33
2023-04-28T10:29:04.954Z,1016.31
2023-04-28T10:34:12.224Z,1016.24
2023-04-28T10:39:19.507Z,1016.28
2023-04-28T10:44:26.675Z,1016.33
2023-04-28T10:49:33.870Z,1016.65
2023-04-28T10:54:41.080Z,1016.74
2023-04-28T10:59:48.298Z,1016.43
2023-04-28T11:04:55.666Z,1016.49
2023-04-28T11:10:02.723Z,1016.68
2023-04-28T11:15:09.891Z,1016.73
2023-04-28T11:20:17.084Z,1016.64
2023-04-28T11:25:24.315Z,1016.49
2023-04-28T11:30:31.556Z,1016.43
2023-04-28T11:35:38.824Z,1016.43
2023-04-28T11:40:46.156Z,1016.55
2023-04-28T11:45:53.378Z,1016.57
2023-04-28T11:51:00.588Z,1016.56
2023-04-28T11:56:07.947Z,1016.45
2023-04-28T12:01:15.027Z,1016.25
2023-04-28T12:06:22.244Z,1016.28
2023-04-28T12:11:29.467Z,1016.41
2023-04-28T12:16:36.634Z,1016.42
2023-04-28T12:21:43.987Z,1016.32
2023-04-28T12:26:51.213Z,1016.52
2023-04-28T12:31:58.462Z,1016.41
2023-04-28T12:37:05.739Z,1016.33
2023-04-28T12:42:12.967Z,1016.50
2023-04-28T12:47:20.263Z,1016.43
2023-04-28T12:52:27.518Z,1016.48
2023-04-28T12:57:35.256Z,1016.34
2023-04-28T13:02:42.219Z,1016.35
2023-04-28T13:07:49.295Z,1016.20
2023-04-28T13:12:56.500Z,1016.25
2023-04-28T13:18:03.783Z,1016.00
2023-04-28T13:23:11.060Z,1016.10
2023-04-28T13:28:18.501Z,1015.95
2023-04-28T13:33:25.846Z,1016.23
2023-04-28T13:38:33.256Z,1016.13
2023-04-28T13:43:40.655Z,1016.30
2023-04-28T13:48:47.977Z,1016.09
2023-04-28T13:53:55.321Z,1016.15
2023-04-28T13:59:02.627Z,1015.93
2023-04-28T14:04:10.366Z,1015.90
2023-04-28T14:09:17.443Z,1015.91
2023-04-28T14:14:24.814Z,1015.76
2023-04-28T14:19:32.239Z,1015.78
2023-04-28T14:24:39.732Z,1015.78
2023-04-28T14:29:47.251Z,1015.73
2023-04-28T14:34:54.706Z,1015.41
2023-04-28T14:40:01.910Z,1015.44
2023-04-28T14:45:09.187Z,1015.55
2023-04-28T14:50:16.367Z,1015.60
2023-04-28T14:55:23.972Z,1015.40
2023-04-28T15:00:31.385Z,1015.20
2023-04-28T15:05:38.734Z,1015.39
2023-04-28T15:10:45.925Z,1015.50
2023-04-28T15:15:53.252Z,1015.40
2023-04-28T15:21:00.363Z,1015.28
2023-04-28T15:26:07.628Z,1015.11
2023-04-28T15:31:14.950Z,1015.08
2023-04-28T15:36:22.150Z,1015.12
2023-04-28T15:41:29.347Z,1015.01
2023-04-28T15:46:36.543Z,1015.28
2023-04-28T15:51:43.695Z,1015.29
2023-04-28T15:56:50.893Z,1014.99
2023-04-28T16:01:58.191Z,1015.04
2023-04-28T16:07:05.376Z,1015.01
2023-04-28T16:12:12.673Z,1014.93
2023-04-28T16:17:20.001Z,1014.85
2023-04-28T16:22:27.326Z,1014.55
2023-04-28T16:27:34.524Z,1014.39
2023-04-28T16:32:41.881Z,1014.38
2023-04-28T16:37:49.094Z,1014.41
2023-04-28T16:42:56.381Z,1014.18
2023-04-28T16:48:03.610Z,1014.14
2023-04-28T16:53:10.736Z,1014.27
2023-04-28T16:58:18.051Z,1014.43
2023-04-28T17:03:25.645Z,1014.29
2023-04-28T17:08:33.615Z,1014.38
2023-04-28T17:13:40.889Z,1014.29
2023-04-28T17:18:48.119Z,1014.42
2023-04-28T17:23:55.457Z,1014.42
2023-04-28T17:29:02.746Z,1014.10
2023-04-28T17:34:10.132Z,1014.26
2023-04-28T17:39:17.309Z,1014.70
2023-04-28T17:44:24.630Z,1014.31
2023-04-28T17:49:31.941Z,1014.58
2023-04-28T17:54:39.190Z,1014.71
2023-04-28T17:59:46.371Z,1015.15
2023-04-28T18:04:54.101Z,1014.93
2023-04-28T18:10:01.420Z,1014.99
2023-04-28T18:15:09.038Z,1015.10
2023-04-28T18:20:16.698Z,1015.11
2023-04-28T18:25:24.296Z,1014.90
2023-04-28T18:30:32.070Z,1015.05
2023-04-28T18:35:39.844Z,1014.88
2023-04-28T18:40:47.649Z,1014.95
2023-04-28T18:45:55.359Z,1015.15
2023-04-28T18:51:02.651Z,1014.94
2023-04-28T18:56:10.155Z,1015.11
2023-04-28T19:01:17.982Z,1015.34
2023-04-28T19:06:25.682Z,1015.31
2023-04-28T19:11:33.237Z,1015.37
2023-04-28T19:16:42.023Z,1015.35
2023-04-28T19:21:49.618Z,1015.59
2023-04-28T19:26:57.434Z,1015.52
2023-04-28T19:32:05.149Z,1015.58
2023-04-28T19:37:12.999Z,1015.37
2023-04-28T19:42:23.735Z,1015.52
2023-04-28T19:47:31.685Z,1015.32
2023-04-28T19:52:39.102Z,1015.30
2023-04-28T19:57:46.384Z,1015.52
2023-04-28T20:02:54.086Z,1015.23
2023-04-28T20:08:01.631Z,1015.16
2023-04-28T20:13:10.270Z,1015.08
2023-04-28T20:18:18.771Z,1015.05
2023-04-28T20:23:26.175Z,1015.11
2023-04-28T20:28:33.498Z,1015.17
2023-04-28T20:33:40.783Z,1015.25
2023-04-28T20:38:48.170Z,1015.21
2023-04-28T20:43:55.449Z,1015.26
2023-04-28T20:49:02.731Z,1015.23
2023-04-28T20:54:10.040Z,1015.42
2023-04-28T20:59:17.207Z,1015.56
2023-04-28T21:04:24.557Z,1015.52
2023-04-28T21:09:31.712Z,1015.53
2023-04-28T21:14:38.992Z,1015.72
2023-04-28T21:19:46.289Z,1015.77
2023-04-28T21:24:53.607Z,1015.53
2023-04-28T21:30:00.894Z,1015.27
2023-04-28T21:35:08.327Z,1015.30
2023-04-28T21:40:17.205Z,1015.25
2023-04-28T21:45:23.422Z,1015.17
2023-04-28T21:50:30.798Z,1015.10
2023-04-28T21:55:38.079Z,1014.94
2023-04-28T22:00:45.367Z,1015.07
2023-04-28T22:05:54.522Z,1015.25
2023-04-28T22:11:01.924Z,1015.14
2023-04-28T22:16:09.218Z,1014.97
2023-04-28T22:21:16.404Z,1014.85
2023-04-28T22:26:23.708Z,1014.92
2023-04-28T22:31:31.201Z,1014.95
2023-04-28T22:36:38.366Z,1014.88
2023-04-28T22:41:45.668Z,1014.76
2023-04-28T22:46:53.112Z,1014.72
2023-04-28T22:52:00.230Z,1014.72
2023-04-28T22:57:07.458Z,1014.62
2023-04-28T23:02:14.687Z,1014.63
2023-04-28T23:07:21.970Z,1014.64
2023-04-28T23:12:29.387Z,1014.88
2023-04-28T23:17:36.738Z,1014.85
2023-04-28T23:22:44.053Z,1014.88
2023-04-28T23:27:51.362Z,1014.90
2023-04-28T23:32:58.653Z,1015.24
2023-04-28T23:38:11.924Z,1014.93
2023-04-28T23:43:19.293Z,1014.73
2023-04-28T23:48:26.748Z,1015.11
2023-04-28T23:53:33.949Z,1014.74
2023-04-28T23:58:41.322Z,1014.49
